Hauptseite
METAR-TAF:

METAR-TAF

Flughäfen :

Flughafen Rimini

Rimini, Italien

Breite: 44-02N, Länge: 012-37E, Höhe: 12 m

Beobachtung

Neuester Wetterbericht von vor 21 Minuten, um 02:50 UTC
Wind 5 kt aus West
Temperatur 17°C
Luftfeuchtigkeit 88%
Luftdruck 1019 hPa
Sichtweite: 6000 m

METAR: LIPR 160250Z AUTO 28005KT 6000 BKN022/// 17/15 Q1019

Zeit: 05:11 (03:11 UTC)

Prognose

Neuester Wetterbericht von vor 4 Stunden und 11 Minuten, um 23:00 UTC
Gültige Prognose vom 16 um 00 UTC bis 16 um 09 UTC
Wind 8 kt aus Südost
Sichtweite: 3000 m
Leicht bewölkt in der Höhe von 1500 ft
feuchter Dunst
Zeitweise
vom 16 um 00 UTC bis 16 um 06 UTC
Sichtweite: 0800 m
Nebelschwaden

TAF: LIPR 152300Z 1600/1609 13008KT 3000 BR FEW015 TEMPO 1600/1606 0800 BCFG

Wetterbeobachtungen und Prognosen von mehr als 4000 Flughäfen (METAR und TAF Bericht).

Die verfügbaren Stationen werden durch gelbe und rote Markierungen auf der Karte dargestellt.

Führen Sie die Maus auf sie, um den Namen der Station zu sehen.

Darauf klicken, um die Beobachtung von Wetterbeobachtungen und Prognosen zu sehen.

Um die Karte zu ändern : klicken Sie auf den grünen Tasten mit einem schwarzen Kreuz Zum Vergrößern, auf den grünen Button mit einem Gedankenstrich zu verkleinern, oder auf die grünen Pfeile für benachbarte Karten.


METAR-TAF: